CCA8357 ZBAA-ZSPD
Flight info
| Callsign | CCA8357 |
|---|---|
| Flight time | N/A |
| Altitude | 34100 |
| Route | ELKUR7X ELKUR W40 YQG W142 DALIM A593 DPX A470 DALNU W166 ZJ W167 SASAN R343 EKIMU |
| Aircraft | A320/M-SDE3FGHIRWY/LB1 |
Departure
| Time | 2026-05-06 10:18 |
|---|---|
| Airport | Beijing Capital International Airport (ZBAA) |
Arrival
| Time | N/A |
|---|---|
| Airport | Shanghai Pudong International Airport (ZSPD) |
| Time | Latitude | Longitude | Altitude | Speed | Heading |
|---|---|---|---|---|---|
| 2026-05-06 10:18 | 40.26972 | 116.78969 | 6809 ft | 293 kts | 79° |
| 2026-05-06 10:18 | 40.27212 | 116.81677 | 7459 ft | 301 kts | 79° |
| 2026-05-06 10:18 | 40.27443 | 116.84343 | 8489 ft | 300 kts | 79° |
| 2026-05-06 10:19 | 40.27681 | 116.87055 | 9346 ft | 305 kts | 80° |
| 2026-05-06 10:19 | 40.27924 | 116.89831 | 10109 ft | 312 kts | 81° |
| 2026-05-06 10:19 | 40.28173 | 116.92690 | 10866 ft | 320 kts | 81° |
| 2026-05-06 10:19 | 40.28422 | 116.95571 | 11603 ft | 326 kts | 82° |
| 2026-05-06 10:20 | 40.28641 | 116.98521 | 12410 ft | 330 kts | 89° |
| 2026-05-06 10:20 | 40.28193 | 117.01455 | 13202 ft | 330 kts | 120° |
| 2026-05-06 10:20 | 40.26783 | 117.03712 | 14006 ft | 319 kts | 151° |
| 2026-05-06 10:20 | 40.24816 | 117.04842 | 14753 ft | 305 kts | 177° |
| 2026-05-06 10:21 | 40.22734 | 117.05165 | 15515 ft | 304 kts | 182° |
| 2026-05-06 10:21 | 40.20639 | 117.05437 | 16250 ft | 308 kts | 182° |
| 2026-05-06 10:21 | 40.18523 | 117.05750 | 17036 ft | 309 kts | 182° |
| 2026-05-06 10:21 | 40.16373 | 117.06084 | 17843 ft | 309 kts | 182° |
| 2026-05-06 10:22 | 40.14261 | 117.06424 | 18590 ft | 310 kts | 182° |
| 2026-05-06 10:22 | 40.12124 | 117.06771 | 19259 ft | 313 kts | 182° |
| 2026-05-06 10:22 | 40.09932 | 117.07125 | 19894 ft | 318 kts | 182° |
| 2026-05-06 10:22 | 40.07724 | 117.07490 | 20523 ft | 322 kts | 182° |
| 2026-05-06 10:23 | 40.05523 | 117.07857 | 21173 ft | 325 kts | 182° |
| 2026-05-06 10:23 | 40.03282 | 117.08231 | 21800 ft | 328 kts | 182° |
| 2026-05-06 10:23 | 40.00988 | 117.08612 | 22431 ft | 331 kts | 182° |
| 2026-05-06 10:23 | 39.98712 | 117.08994 | 23021 ft | 335 kts | 182° |
| 2026-05-06 10:24 | 39.96373 | 117.09386 | 23588 ft | 339 kts | 182° |
| 2026-05-06 10:24 | 39.94008 | 117.09784 | 24153 ft | 343 kts | 182° |
| 2026-05-06 10:24 | 39.91632 | 117.10181 | 24699 ft | 347 kts | 183° |
| 2026-05-06 10:24 | 39.89257 | 117.10580 | 25241 ft | 349 kts | 183° |
| 2026-05-06 10:25 | 39.86814 | 117.10990 | 25777 ft | 353 kts | 183° |
| 2026-05-06 10:25 | 39.84359 | 117.11401 | 26293 ft | 356 kts | 183° |
| 2026-05-06 10:25 | 39.81925 | 117.11810 | 26814 ft | 359 kts | 184° |
| 2026-05-06 10:25 | 39.79423 | 117.12228 | 27307 ft | 362 kts | 184° |
| 2026-05-06 10:26 | 39.76914 | 117.12645 | 27798 ft | 364 kts | 184° |
| 2026-05-06 10:26 | 39.74406 | 117.13062 | 28246 ft | 368 kts | 184° |
| 2026-05-06 10:26 | 39.71862 | 117.13487 | 28686 ft | 370 kts | 185° |
| 2026-05-06 10:26 | 39.69292 | 117.13914 | 29145 ft | 372 kts | 185° |
| 2026-05-06 10:27 | 39.66706 | 117.14347 | 29565 ft | 374 kts | 185° |
| 2026-05-06 10:27 | 39.65644 | 117.14523 | 29746 ft | 375 kts | 185° |